Time;durP1;ratioP1;P1;durP2;ratioP2;P2;SDS_P1;SDS_P2;PMS_P1;PMS_P2;Temp;Humidity;BMP_temperature;BMP_pressure;BME280_temperature;BME280_humidity;BME280_pressure;Samples;Min_cycle;Max_cycle;Signal;HPM_P1;HPM_P2
2022/08/14 00:01:01;;;;;;;11.30;4.07;;;20.90;99.90;;;;;;4716042;30;20075;-93
2022/08/14 00:06:50;;;;;;;6.18;3.97;;;20.70;99.90;;;;;;4708647;30;20087;-92
2022/08/14 00:09:48;;;;;;;7.97;4.45;;;20.70;99.90;;;;;;4703277;30;20524;-93
2022/08/14 00:12:44;;;;;;;9.10;5.13;;;20.70;99.90;;;;;;4689000;30;20225;-93
2022/08/14 00:15:34;;;;;;;8.50;4.68;;;20.60;99.90;;;;;;4647616;30;20155;-93
2022/08/14 00:18:25;;;;;;;6.05;4.82;;;20.60;99.90;;;;;;4701985;30;20053;-93
2022/08/14 00:21:17;;;;;;;8.23;5.32;;;20.60;99.90;;;;;;4713672;30;20524;-93
2022/08/14 00:24:11;;;;;;;13.20;5.70;;;20.60;99.90;;;;;;4715885;30;20102;-93
2022/08/14 00:26:58;;;;;;;6.63;5.28;;;20.60;99.90;;;;;;4715749;30;20068;-94
2022/08/14 00:29:57;;;;;;;10.75;5.28;;;20.50;99.90;;;;;;4701346;30;20098;-94
2022/08/14 00:32:41;;;;;;;11.02;6.07;;;20.60;99.90;;;;;;4694417;30;20056;-93
2022/08/14 00:36:16;;;;;;;11.65;5.45;;;20.60;99.90;;;;;;4701028;30;20067;-91
2022/08/14 00:38:51;;;;;;;9.32;5.65;;;20.60;99.90;;;;;;4701229;30;20403;-93
2022/08/14 00:42:06;;;;;;;11.43;5.78;;;20.50;99.90;;;;;;4725538;30;20067;-93
2022/08/14 00:44:19;;;;;;;11.10;5.88;;;20.50;99.90;;;;;;4714831;30;20137;-93
2022/08/14 00:47:34;;;;;;;11.80;5.72;;;20.50;99.90;;;;;;4702780;30;20084;-93
2022/08/14 00:50:40;;;;;;;13.57;6.43;;;20.70;99.90;;;;;;4702464;30;20049;-94
2022/08/14 00:53:43;;;;;;;8.68;5.97;;;20.60;99.90;;;;;;4716041;30;20056;-94
2022/08/14 00:56:34;;;;;;;10.23;6.00;;;20.50;99.90;;;;;;4730257;30;20051;-94
2022/08/14 00:59:08;;;;;;;10.20;5.80;;;20.30;99.90;;;;;;4730009;30;20106;-94
2022/08/14 01:01:49;;;;;;;10.13;6.25;;;20.50;99.90;;;;;;4719580;30;20056;-94
2022/08/14 01:04:21;;;;;;;13.90;6.32;;;20.40;99.90;;;;;;4719576;30;20059;-94
2022/08/14 01:23:34;;;;;;;11.13;6.22;;;20.40;99.90;;;;;;4731741;30;20060;-94
2022/08/14 01:27:00;;;;;;;11.20;6.28;;;20.30;99.90;;;;;;4719722;30;20067;-94
2022/08/14 01:30:02;;;;;;;11.52;6.15;;;20.30;99.90;;;;;;4666186;30;20414;-93
2022/08/14 01:33:11;;;;;;;9.98;6.85;;;20.30;99.90;;;;;;4732912;30;20056;-94
2022/08/14 01:36:41;;;;;;;13.15;7.18;;;20.20;99.90;;;;;;4736274;30;20062;-93
2022/08/14 01:39:35;;;;;;;7.80;6.55;;;20.20;99.90;;;;;;4685880;30;20142;-94
2022/08/14 01:42:28;;;;;;;10.98;6.93;;;20.10;99.90;;;;;;4672568;30;20060;-92
2022/08/14 01:49:16;;;;;;;7.95;6.25;;;20.10;99.90;;;;;;4656027;30;20091;-93
2022/08/14 01:52:15;;;;;;;10.38;6.78;;;20.10;99.90;;;;;;4736968;30;20048;-93
2022/08/14 01:54:59;;;;;;;7.95;6.40;;;20.10;99.90;;;;;;4721143;30;20056;-93
2022/08/14 01:57:54;;;;;;;10.63;6.72;;;20.00;99.90;;;;;;4721443;30;20091;-93
2022/08/14 02:00:24;;;;;;;8.38;6.40;;;19.90;99.90;;;;;;4717048;30;20103;-94
2022/08/14 02:03:07;;;;;;;9.45;6.55;;;19.80;99.90;;;;;;4721189;30;20060;-94
2022/08/14 02:06:07;;;;;;;;;;;;;;;;;;;;;
2022/08/14 02:12:45;;;;;;;9.65;6.68;;;19.70;99.90;;;;;;4691170;30;20056;-93
2022/08/14 02:15:50;;;;;;;8.15;6.55;;;19.60;99.90;;;;;;4718316;30;20052;-94
2022/08/14 02:22:38;;;;;;;13.48;8.25;;;19.60;99.90;;;;;;4713080;30;20135;-94
2022/08/14 02:25:37;;;;;;;11.57;7.93;;;19.50;99.90;;;;;;4736852;30;20059;-93
2022/08/14 02:28:54;;;;;;;10.05;7.65;;;19.40;99.90;;;;;;4688817;30;20060;-93
2022/08/14 02:32:09;;;;;;;12.63;7.43;;;19.40;99.90;;;;;;4708208;30;20509;-93
2022/08/14 02:35:28;;;;;;;14.48;8.18;;;19.40;99.90;;;;;;4710468;30;20536;-93
2022/08/14 02:38:23;;;;;;;10.40;7.90;;;19.40;99.90;;;;;;4703414;30;20506;-93
2022/08/14 02:45:05;;;;;;;12.43;8.15;;;19.40;99.90;;;;;;4646733;30;20091;-92
2022/08/14 02:48:17;;;;;;;11.38;8.60;;;19.40;99.90;;;;;;4675559;30;20060;-93
2022/08/14 02:51:11;;;;;;;13.13;7.50;;;19.40;99.90;;;;;;4676403;30;20065;-93
2022/08/14 02:53:50;;;;;;;10.82;7.85;;;19.40;99.90;;;;;;4699622;30;20074;-93
2022/08/14 03:00:38;;;;;;;12.17;8.67;;;19.40;99.90;;;;;;4639213;30;20402;-93
2022/08/14 03:06:50;;;;;;;11.57;8.30;;;19.30;99.90;;;;;;4718752;30;20083;-93
2022/08/14 03:09:57;;;;;;;11.98;8.30;;;19.20;99.90;;;;;;4715402;30;20099;-93
2022/08/14 03:15:59;;;;;;;10.60;8.97;;;19.20;99.90;;;;;;4716623;30;20411;-93
2022/08/14 03:18:41;;;;;;;11.38;9.13;;;19.20;99.90;;;;;;4702495;30;20056;-93
2022/08/14 03:21:57;;;;;;;13.98;8.77;;;19.10;99.90;;;;;;4699086;30;20066;-93
2022/08/14 03:28:04;;;;;;;10.57;9.13;;;19.10;99.90;;;;;;4680167;30;20061;-94
2022/08/14 03:31:11;;;;;;;15.18;10.18;;;19.10;99.90;;;;;;4715485;30;20460;-94
2022/08/14 03:34:11;;;;;;;11.82;9.75;;;19.20;99.90;;;;;;4719475;30;20060;-94
2022/08/14 03:37:01;;;;;;;16.27;10.02;;;19.20;99.90;;;;;;4707505;30;20066;-93
2022/08/14 03:43:19;;;;;;;10.40;8.85;;;19.20;99.90;;;;;;4660630;30;20122;-94
2022/08/14 03:46:36;;;;;;;12.00;9.50;;;19.10;99.90;;;;;;4719080;30;20056;-94
2022/08/14 03:49:43;;;;;;;19.15;9.32;;;19.20;99.90;;;;;;4710661;30;20060;-93
2022/08/14 03:56:13;;;;;;;12.70;9.88;;;19.30;99.90;;;;;;4703327;30;20055;-93
2022/08/14 03:59:14;;;;;;;12.38;8.98;;;19.30;99.90;;;;;;4726961;30;20516;-93
2022/08/14 04:02:30;;;;;;;13.85;9.07;;;19.20;99.90;;;;;;4728470;30;20138;-93
2022/08/14 04:05:12;;;;;;;21.23;9.85;;;19.20;99.90;;;;;;4723043;30;20510;-93
2022/08/14 04:11:14;;;;;;;14.25;9.27;;;19.30;99.90;;;;;;4687304;30;20060;-92
2022/08/14 04:14:28;;;;;;;12.02;9.60;;;19.20;99.90;;;;;;4732552;30;20131;-93
2022/08/14 04:17:28;;;;;;;18.17;9.23;;;19.20;99.90;;;;;;4699382;30;20502;-92
2022/08/14 04:19:58;;;;;;;13.25;8.98;;;19.20;99.90;;;;;;4685207;30;20359;-94
2022/08/14 04:30:15;;;;;;;12.18;9.43;;;19.30;99.90;;;;;;4740913;30;20075;-93
2022/08/14 04:33:15;;;;;;;16.98;9.73;;;19.20;99.90;;;;;;4706467;30;20099;-93
2022/08/14 04:36:14;;;;;;;11.55;8.93;;;19.20;99.90;;;;;;4722896;30;20474;-93
2022/08/14 04:45:49;;;;;;;15.77;8.93;;;19.10;99.90;;;;;;4726637;30;20548;-93
2022/08/14 04:48:46;;;;;;;19.15;9.05;;;19.10;99.90;;;;;;4724585;30;20048;-94
2022/08/14 04:51:39;;;;;;;16.55;8.80;;;19.00;99.90;;;;;;4738787;30;20481;-94
2022/08/14 04:54:31;;;;;;;12.57;8.48;;;19.00;99.90;;;;;;4724560;30;20106;-93
2022/08/14 05:00:55;;;;;;;16.65;9.23;;;18.90;99.90;;;;;;4702100;30;20055;-93
2022/08/14 05:03:36;;;;;;;16.73;8.95;;;18.90;99.90;;;;;;4694250;30;20098;-93
2022/08/14 05:06:30;;;;;;;20.77;8.50;;;18.90;99.90;;;;;;4707943;30;20442;-94
2022/08/14 05:09:14;;;;;;;16.23;8.57;;;18.90;99.90;;;;;;4721804;30;20071;-93
2022/08/14 05:11:46;;;;;;;14.65;8.50;;;19.00;99.90;;;;;;4732793;30;20052;-93
2022/08/14 05:14:58;;;;;;;12.27;8.68;;;18.90;99.90;;;;;;4720440;30;20071;-94
2022/08/14 05:18:20;;;;;;;14.10;8.98;;;19.10;99.90;;;;;;4733224;30;20071;-93
2022/08/14 05:21:27;;;;;;;14.40;9.23;;;19.00;99.90;;;;;;4715413;30;20053;-93
2022/08/14 05:32:07;;;;;;;;;;;;;;;;;;;;;
2022/08/14 05:39:19;;;;;;;12.80;9.52;;;19.50;99.90;;;;;;4723466;30;20094;-93
2022/08/14 05:41:49;;;;;;;14.95;9.60;;;19.70;99.90;;;;;;4710826;24;20109;-92
2022/08/14 05:44:15;;;;;;;14.48;9.00;;;19.80;99.90;;;;;;4754285;30;20485;-92
2022/08/14 05:46:40;;;;;;;10.55;8.45;;;19.90;99.90;;;;;;4749374;30;20085;-92
2022/08/14 05:49:06;;;;;;;11.68;8.63;;;20.00;99.90;;;;;;4742084;30;20121;-92
2022/08/14 05:51:32;;;;;;;10.95;8.57;;;20.10;99.90;;;;;;4754135;30;20047;-92
2022/08/14 05:53:58;;;;;;;9.77;8.45;;;20.30;99.90;;;;;;4747437;30;20055;-92
2022/08/14 05:56:24;;;;;;;10.68;7.97;;;20.40;99.90;;;;;;4732207;30;20099;-91
2022/08/14 05:58:51;;;;;;;20.33;8.45;;;20.50;99.90;;;;;;4739363;30;20059;-91
2022/08/14 06:01:17;;;;;;;10.23;8.32;;;20.60;99.90;;;;;;4747239;30;20051;-91
2022/08/14 06:03:43;;;;;;;10.50;7.93;;;20.70;99.90;;;;;;4754200;30;20044;-92
2022/08/14 06:06:11;;;;;;;10.98;7.82;;;20.80;99.90;;;;;;4729693;30;20125;-89
2022/08/14 06:08:43;;;;;;;10.80;8.07;;;20.90;99.90;;;;;;4733294;30;20046;-91
2022/08/14 06:11:09;;;;;;;16.40;8.13;;;21.10;99.90;;;;;;4727026;30;20473;-90
2022/08/14 06:13:38;;;;;;;15.93;8.70;;;21.20;99.90;;;;;;4728621;30;20052;-91
2022/08/14 06:16:04;;;;;;;12.48;8.75;;;21.20;99.90;;;;;;4730807;30;20047;-91
2022/08/14 06:18:31;;;;;;;11.88;7.95;;;21.30;99.90;;;;;;4738360;30;20059;-91
2022/08/14 06:20:56;;;;;;;13.25;8.57;;;21.40;99.90;;;;;;4739142;30;20098;-90
2022/08/14 06:23:23;;;;;;;10.80;8.57;;;21.50;99.90;;;;;;4738113;30;20145;-96
2022/08/14 06:25:49;;;;;;;11.82;8.93;;;21.60;99.90;;;;;;4739121;30;20108;-92
2022/08/14 06:28:21;;;;;;;15.32;8.38;;;21.70;99.90;;;;;;4739061;30;20248;-92
2022/08/14 06:30:47;;;;;;;15.07;8.00;;;21.80;99.90;;;;;;4739008;30;20063;-92
2022/08/14 06:33:14;;;;;;;12.07;7.65;;;21.90;99.90;;;;;;4738948;30;20054;-91
2022/08/14 06:35:39;;;;;;;12.13;8.27;;;21.90;99.90;;;;;;4753644;30;20513;-92
2022/08/14 06:38:05;;;;;;;19.70;8.57;;;22.00;99.90;;;;;;4738879;30;20054;-91
2022/08/14 06:40:34;;;;;;;9.07;6.80;;;22.10;99.90;;;;;;4738288;30;20126;-92
2022/08/14 06:43:10;;;;;;;14.05;7.85;;;22.20;99.90;;;;;;4738756;30;20085;-90
2022/08/14 06:45:39;;;;;;;10.68;7.22;;;22.30;99.90;;;;;;4738687;30;20375;-92
2022/08/14 06:48:15;;;;;;;15.07;7.97;;;22.40;99.90;;;;;;4738899;30;20097;-92
2022/08/14 06:50:42;;;;;;;16.60;8.07;;;22.50;99.90;;;;;;4739015;30;20048;-91
2022/08/14 06:53:08;;;;;;;11.63;8.15;;;22.60;99.90;;;;;;4738471;30;20043;-91
2022/08/14 06:55:34;;;;;;;12.75;7.82;;;22.70;99.90;;;;;;4738731;30;20558;-91
2022/08/14 06:58:10;;;;;;;11.15;7.82;;;22.70;99.90;;;;;;4734755;30;20048;-91
2022/08/14 07:00:36;;;;;;;16.23;7.60;;;22.90;99.90;;;;;;4749570;30;20113;-90
2022/08/14 07:05:47;;;;;;;11.95;7.28;;;23.00;99.90;;;;;;4734639;30;20344;-90
2022/08/14 07:08:27;;;;;;;13.55;6.50;;;23.20;99.90;;;;;;4734748;30;20063;-90
2022/08/14 07:10:55;;;;;;;11.85;6.50;;;23.30;99.90;;;;;;4720865;30;20147;-91
2022/08/14 07:13:23;;;;;;;14.48;6.53;;;23.40;99.90;;;;;;4734095;30;20048;-92
2022/08/14 07:15:51;;;;;;;12.77;6.13;;;23.50;99.90;;;;;;4719655;30;20055;-90
2022/08/14 07:18:27;;;;;;;9.00;5.85;;;23.60;99.90;;;;;;4718999;30;20060;-91
2022/08/14 07:20:54;;;;;;;10.02;5.72;;;23.70;99.90;;;;;;4720290;30;20059;-90
2022/08/14 07:23:22;;;;;;;8.23;5.55;;;23.80;99.90;;;;;;4718951;30;20052;-91
2022/08/14 07:25:49;;;;;;;9.10;5.88;;;23.80;99.90;;;;;;4720532;30;20056;-92
2022/08/14 07:28:18;;;;;;;9.65;5.50;;;24.00;99.90;;;;;;4719270;30;20052;-91
2022/08/14 07:30:44;;;;;;;8.15;5.30;;;24.10;99.90;;;;;;4719989;30;20056;-91
2022/08/14 07:33:11;;;;;;;9.23;5.25;;;24.20;99.90;;;;;;4719522;30;20048;-90
2022/08/14 07:35:39;;;;;;;9.43;5.82;;;24.30;99.90;;;;;;4719832;30;20055;-91
2022/08/14 07:38:06;;;;;;;8.02;5.03;;;24.40;99.90;;;;;;4733006;30;20051;-92
2022/08/14 07:40:33;;;;;;;7.47;4.82;;;24.50;99.90;;;;;;4749108;30;20059;-91
2022/08/14 07:42:59;;;;;;;9.55;4.97;;;24.60;99.90;;;;;;4749152;30;20067;-91
2022/08/14 07:45:25;;;;;;;8.02;5.28;;;24.70;99.90;;;;;;4719635;30;20040;-90
2022/08/14 07:47:51;;;;;;;7.50;5.32;;;24.80;99.90;;;;;;4757705;30;20069;-90
2022/08/14 07:50:20;;;;;;;6.70;5.05;;;24.80;99.90;;;;;;4739690;30;20147;-96
2022/08/14 07:52:51;;;;;;;8.05;5.63;;;24.80;99.90;;;;;;4754213;30;20056;-96
2022/08/14 07:55:22;;;;;;;14.45;5.13;;;25.00;99.90;;;;;;4772642;30;20058;-96
2022/08/14 07:57:49;;;;;;;26.48;6.18;;;25.10;99.90;;;;;;4739499;30;20063;-96
2022/08/14 08:00:17;;;;;;;16.98;5.50;;;25.20;99.90;;;;;;4748399;30;20105;-96
2022/08/14 08:02:47;;;;;;;9.57;4.75;;;25.20;99.90;;;;;;4746021;30;20087;-96
2022/08/14 08:05:15;;;;;;;9.90;5.10;;;25.40;99.90;;;;;;4740782;30;20052;-96
2022/08/14 08:07:47;;;;;;;10.70;4.90;;;25.50;99.90;;;;;;4743903;30;20051;-96
2022/08/14 08:10:31;;;;;;;12.30;5.03;;;25.60;99.90;;;;;;4741742;30;20054;-95
2022/08/14 08:13:16;;;;;;;7.65;4.80;;;25.60;99.90;;;;;;4736893;30;20067;-96
2022/08/14 08:15:45;;;;;;;9.20;4.55;;;25.70;99.90;;;;;;4751971;30;20048;-94
2022/08/14 08:18:13;;;;;;;9.50;4.05;;;25.80;99.90;;;;;;4738166;30;20470;-96
2022/08/14 08:20:45;;;;;;;14.50;4.35;;;25.80;99.90;;;;;;4739648;30;20048;-96
2022/08/14 08:23:12;;;;;;;10.55;4.88;;;25.90;99.90;;;;;;4735478;30;20056;-96
2022/08/14 08:25:41;;;;;;;9.63;4.32;;;25.90;99.90;;;;;;4721834;30;20142;-96
2022/08/14 08:28:11;;;;;;;10.63;4.30;;;26.00;99.90;;;;;;4742579;30;20296;-96
2022/08/14 08:30:46;;;;;;;8.55;4.57;;;26.10;99.90;;;;;;4734016;30;20056;-96
2022/08/14 08:33:14;;;;;;;8.80;4.10;;;26.20;99.90;;;;;;4725918;30;20069;-95
2022/08/14 08:35:40;;;;;;;6.53;3.90;;;26.20;99.90;;;;;;4727781;30;20060;-94
2022/08/14 08:38:09;;;;;;;9.05;4.22;;;26.30;99.90;;;;;;4720239;30;20093;-93
2022/08/14 08:40:39;;;;;;;7.47;4.05;;;26.40;99.90;;;;;;4721207;30;20060;-95
2022/08/14 08:43:07;;;;;;;7.22;4.22;;;26.40;99.90;;;;;;4724365;30;20060;-96
2022/08/14 08:45:36;;;;;;;8.23;4.13;;;26.40;99.90;;;;;;4729627;30;20517;-96
2022/08/14 08:48:03;;;;;;;10.82;4.25;;;26.50;99.90;;;;;;4724959;30;20056;-95
2022/08/14 08:50:33;;;;;;;10.40;3.80;;;26.50;99.90;;;;;;4722809;30;20086;-96
2022/08/14 08:53:03;;;;;;;7.13;4.05;;;26.60;99.90;;;;;;4718654;30;20067;-96
2022/08/14 08:55:30;;;;;;;7.57;3.78;;;26.70;99.90;;;;;;4732254;30;20109;-95
2022/08/14 08:57:59;;;;;;;9.93;4.43;;;26.80;99.90;;;;;;4723281;30;20055;-94
2022/08/14 09:00:28;;;;;;;5.13;3.30;;;27.00;99.90;;;;;;4723422;30;20131;-94
2022/08/14 09:02:56;;;;;;;7.07;3.40;;;27.00;99.90;;;;;;4737650;30;20056;-93
2022/08/14 09:05:23;;;;;;;7.97;4.18;;;27.10;99.90;;;;;;4722622;30;20130;-96
2022/08/14 09:07:49;;;;;;;5.85;3.90;;;27.10;99.90;;;;;;4753184;30;20439;-95
2022/08/14 09:10:15;;;;;;;7.53;3.85;;;27.20;99.90;;;;;;4722902;30;20054;-94
2022/08/14 09:12:41;;;;;;;6.10;3.55;;;27.20;99.90;;;;;;4722355;30;20052;-92
2022/08/14 09:15:08;;;;;;;8.13;3.95;;;27.30;99.90;;;;;;4737271;30;20516;-94
2022/08/14 09:17:35;;;;;;;5.57;3.15;;;27.30;99.90;;;;;;4734138;30;20052;-92
2022/08/14 09:20:01;;;;;;;7.75;3.90;;;27.40;99.90;;;;;;4739801;30;20586;-94
2022/08/14 09:22:27;;;;;;;8.35;3.70;;;27.40;99.90;;;;;;4739360;30;20504;-94
2022/08/14 09:24:54;;;;;;;6.25;3.63;;;27.40;99.90;;;;;;4740380;30;20051;-94
2022/08/14 09:27:20;;;;;;;5.30;3.67;;;27.50;99.90;;;;;;4739800;30;20056;-95
2022/08/14 09:29:46;;;;;;;14.85;3.60;;;27.50;99.90;;;;;;4738091;30;20083;-95
2022/08/14 09:32:21;;;;;;;7.10;3.10;;;27.60;99.90;;;;;;4739825;30;20516;-95
2022/08/14 09:35:02;;;;;;;9.73;3.80;;;27.60;99.90;;;;;;4739394;30;20051;-95
2022/08/14 09:37:53;;;;;;;5.85;3.40;;;27.70;99.90;;;;;;4740126;30;20475;-96
2022/08/14 09:40:34;;;;;;;8.00;3.80;;;27.80;99.90;;;;;;4770202;30;20090;-95
2022/08/14 09:43:05;;;;;;;6.70;3.80;;;27.90;99.90;;;;;;4751041;30;20087;-96
2022/08/14 09:45:46;;;;;;;8.32;3.88;;;27.90;99.90;;;;;;4740118;30;20101;-96
2022/08/14 09:48:17;;;;;;;9.07;3.50;;;28.00;99.90;;;;;;4739967;30;20052;-96
2022/08/14 09:50:46;;;;;;;6.22;3.72;;;28.00;99.90;;;;;;4754723;30;20048;-94
2022/08/14 09:53:18;;;;;;;6.95;3.80;;;28.00;99.90;;;;;;4754222;30;20048;-93
2022/08/14 09:55:44;;;;;;;6.05;4.03;;;28.10;99.90;;;;;;4755357;30;20043;-96
2022/08/14 09:58:13;;;;;;;6.43;3.80;;;28.10;99.90;;;;;;4755128;30;20044;-96
2022/08/14 10:00:48;;;;;;;7.88;3.75;;;28.20;99.90;;;;;;4739084;30;20075;-96
2022/08/14 10:03:32;;;;;;;6.60;3.70;;;28.20;99.90;;;;;;4734793;30;20089;-95
2022/08/14 10:06:06;;;;;;;11.40;3.67;;;28.20;99.90;;;;;;4746816;30;20048;-96
2022/08/14 10:16:27;;;;;;;;;;;;;;;;;;;;;
2022/08/14 10:19:47;;;;;;;5.85;3.50;;;28.50;99.90;;;;;;4734088;30;20147;-95
2022/08/14 10:29:32;;;;;;;5.13;3.33;;;28.80;99.90;;;;;;4807964;24;20056;-94
2022/08/14 10:31:58;;;;;;;6.70;3.33;;;29.00;99.90;;;;;;4746488;30;20528;-94
2022/08/14 10:34:33;;;;;;;5.97;3.15;;;28.90;99.90;;;;;;4754003;30;20055;-92
2022/08/14 10:37:06;;;;;;;4.60;2.58;;;29.00;99.90;;;;;;4740653;30;20092;-92
2022/08/14 10:39:34;;;;;;;13.38;3.33;;;29.00;99.90;;;;;;4723672;30;20044;-94
2022/08/14 10:42:05;;;;;;;19.70;2.97;;;29.00;99.90;;;;;;4721721;30;20139;-93
2022/08/14 10:44:52;;;;;;;4.75;3.00;;;29.00;99.90;;;;;;4729085;30;20048;-94
2022/08/14 10:47:18;;;;;;;6.60;3.15;;;29.00;99.90;;;;;;4753042;30;20146;-94
2022/08/14 10:50:18;;;;;;;;;;;;;;;;;;;;;
2022/08/14 10:56:00;;;;;;;4.80;3.42;;;29.40;99.90;;;;;;4742783;30;20138;-94
2022/08/14 10:58:45;;;;;;;6.72;3.00;;;29.30;99.90;;;;;;4738852;30;20051;-94
2022/08/14 11:01:13;;;;;;;10.93;3.58;;;29.40;99.90;;;;;;4738266;30;20060;-94
2022/08/14 11:03:49;;;;;;;7.43;3.10;;;29.40;99.90;;;;;;4753977;30;20130;-94
2022/08/14 11:06:37;;;;;;;;;;;;;;;;;;;;;
2022/08/14 11:09:11;;;;;;;;;;;29.50;99.90;;;;;;4754036;30;20060;-93
2022/08/14 11:11:54;;;;;;;8.55;3.10;;;29.50;99.90;;;;;;4753614;30;19925;-94
2022/08/14 11:14:20;;;;;;;6.72;3.42;;;29.50;99.90;;;;;;4738332;30;20047;-93
2022/08/14 11:16:47;;;;;;;5.00;3.20;;;29.50;99.90;;;;;;4738383;30;20066;-93
2022/08/14 11:19:17;;;;;;;4.72;3.08;;;29.50;99.90;;;;;;4738236;30;20051;-93
2022/08/14 11:21:44;;;;;;;6.70;3.22;;;29.60;99.90;;;;;;4738195;30;20060;-93
2022/08/14 11:24:12;;;;;;;7.03;3.08;;;29.60;99.90;;;;;;4738084;30;20048;-93
2022/08/14 11:26:39;;;;;;;9.07;3.20;;;29.70;99.90;;;;;;4738338;30;20056;-94
2022/08/14 11:29:06;;;;;;;4.03;3.00;;;29.80;99.90;;;;;;4737794;30;20156;-94
2022/08/14 11:31:33;;;;;;;5.97;3.20;;;29.80;99.00;;;;;;4737959;30;20064;-94
2022/08/14 11:33:59;;;;;;;9.40;3.35;;;29.90;99.10;;;;;;4738714;30;20051;-94
2022/08/14 11:36:31;;;;;;;5.10;3.53;;;29.90;98.90;;;;;;4738162;30;20063;-94
2022/08/14 11:38:57;;;;;;;;;;;29.90;98.50;;;;;;4738343;30;20059;-95
2022/08/14 11:41:33;;;;;;;4.30;2.92;;;29.90;98.90;;;;;;4752570;30;19936;-95
2022/08/14 11:44:02;;;;;;;7.25;3.58;;;29.90;98.30;;;;;;4752613;30;20134;-94
2022/08/14 11:46:36;;;;;;;5.18;3.40;;;29.80;98.20;;;;;;4738059;30;20505;-96
2022/08/14 11:49:01;;;;;;;6.60;3.67;;;29.90;98.60;;;;;;4738505;30;20055;-93
2022/08/14 11:51:27;;;;;;;6.32;3.33;;;29.90;97.70;;;;;;4737637;30;20135;-94
2022/08/14 11:54:23;;;;;;;5.65;3.17;;;30.00;97.80;;;;;;4732743;30;20082;-93
2022/08/14 11:56:52;;;;;;;7.68;3.50;;;30.00;97.60;;;;;;4752000;30;20055;-93
2022/08/14 11:59:21;;;;;;;9.15;3.28;;;30.10;96.80;;;;;;4720030;30;20135;-94
2022/08/14 12:01:48;;;;;;;5.70;3.38;;;30.20;96.20;;;;;;4735188;30;20060;-94
2022/08/14 12:04:17;;;;;;;8.05;3.50;;;30.30;96.30;;;;;;4739619;30;20094;-92
2022/08/14 12:06:52;;;;;;;6.03;3.30;;;30.30;96.50;;;;;;4751213;30;20135;-94
2022/08/14 12:09:30;;;;;;;7.10;3.20;;;30.40;96.00;;;;;;4737665;30;20070;-94
2022/08/14 12:11:56;;;;;;;5.38;3.42;;;30.40;96.00;;;;;;4737165;30;20054;-94
2022/08/14 12:14:45;;;;;;;5.93;3.42;;;30.40;95.80;;;;;;4752492;30;20209;-94
2022/08/14 12:17:12;;;;;;;6.35;3.22;;;30.60;94.70;;;;;;4737003;30;20109;-94
2022/08/14 12:20:03;;;;;;;7.40;3.35;;;30.60;94.70;;;;;;4742524;30;20211;-94
2022/08/14 12:22:34;;;;;;;6.03;3.40;;;30.60;94.60;;;;;;4736750;30;20103;-94
2022/08/14 12:25:03;;;;;;;7.40;3.67;;;30.60;94.30;;;;;;4751651;30;20052;-94
2022/08/14 12:27:50;;;;;;;6.95;3.20;;;30.70;94.30;;;;;;4732928;30;20059;-93
2022/08/14 12:30:37;;;;;;;5.90;3.25;;;30.80;94.30;;;;;;4716458;30;20053;-93
2022/08/14 12:33:37;;;;;;;8.35;3.25;;;30.90;94.20;;;;;;4702403;30;20088;-96
2022/08/14 12:36:08;;;;;;;5.03;2.83;;;30.90;92.60;;;;;;4702972;30;20101;-93
2022/08/14 12:38:49;;;;;;;7.53;3.30;;;31.00;92.50;;;;;;4702759;30;20053;-93
2022/08/14 12:41:19;;;;;;;5.60;3.20;;;31.00;92.50;;;;;;4702441;30;20055;-94
2022/08/14 12:44:02;;;;;;;;;;;;;;;;;;;;;
2022/08/14 12:46:40;;;;;;;9.02;3.30;;;31.10;90.90;;;;;;4731745;30;20056;-94
2022/08/14 12:49:10;;;;;;;7.30;3.50;;;31.20;91.20;;;;;;4702003;30;20577;-94
2022/08/14 12:51:39;;;;;;;6.22;3.40;;;31.30;91.40;;;;;;4701801;30;20140;-94
2022/08/14 12:54:18;;;;;;;11.00;3.78;;;31.40;91.10;;;;;;4700206;30;20083;-95
2022/08/14 12:56:46;;;;;;;11.13;3.60;;;31.50;91.10;;;;;;4701596;30;20076;-96
2022/08/14 12:59:31;;;;;;;6.35;3.42;;;31.50;90.40;;;;;;4700314;30;20057;-94
2022/08/14 13:02:01;;;;;;;8.18;3.95;;;31.40;90.30;;;;;;4700699;30;20060;-94
2022/08/14 13:04:30;;;;;;;9.98;4.88;;;31.30;89.90;;;;;;4715444;30;20519;-94
2022/08/14 13:07:03;;;;;;;12.98;4.85;;;31.20;89.60;;;;;;4700745;30;20137;-94
2022/08/14 13:09:29;;;;;;;9.45;3.75;;;31.00;89.70;;;;;;4700591;30;20060;-93
2022/08/14 13:11:56;;;;;;;6.07;3.60;;;30.90;90.00;;;;;;4701319;30;20206;-94
2022/08/14 13:14:24;;;;;;;8.80;4.03;;;30.80;89.10;;;;;;4700564;30;20049;-95
2022/08/14 13:16:55;;;;;;;13.68;4.10;;;30.80;90.00;;;;;;4715549;30;20172;-93
2022/08/14 13:19:28;;;;;;;10.88;3.72;;;30.90;90.40;;;;;;4718135;30;20189;-93
2022/08/14 13:21:56;;;;;;;6.88;3.65;;;31.00;90.30;;;;;;4717730;30;20448;-94
2022/08/14 13:24:23;;;;;;;9.10;4.03;;;31.00;89.80;;;;;;4717717;30;20067;-95
2022/08/14 13:26:57;;;;;;;7.22;3.85;;;30.90;90.00;;;;;;4718275;30;20094;-94
2022/08/14 13:29:27;;;;;;;11.20;4.38;;;30.70;89.80;;;;;;4730431;30;20190;-94
2022/08/14 13:31:54;;;;;;;7.82;3.65;;;30.70;90.00;;;;;;4735535;30;20051;-93
2022/08/14 13:34:22;;;;;;;6.70;3.47;;;30.80;89.50;;;;;;4734215;30;20047;-94
2022/08/14 13:36:49;;;;;;;8.25;3.50;;;30.90;89.60;;;;;;4735601;30;20501;-93
2022/08/14 13:39:21;;;;;;;5.40;3.78;;;30.90;88.50;;;;;;4736121;30;20132;-94
2022/08/14 13:41:48;;;;;;;6.97;3.80;;;31.00;89.50;;;;;;4738403;30;20113;-93
2022/08/14 13:44:15;;;;;;;10.10;3.83;;;31.10;88.70;;;;;;4738252;30;20439;-93
2022/08/14 13:46:43;;;;;;;7.78;3.80;;;31.30;87.70;;;;;;4738418;30;20059;-92
2022/08/14 13:49:10;;;;;;;11.65;4.10;;;31.40;87.60;;;;;;4737187;30;20067;-92
2022/08/14 13:51:57;;;;;;;7.97;3.65;;;31.40;86.40;;;;;;4736201;30;20859;-95
2022/08/14 13:54:28;;;;;;;8.60;4.03;;;31.40;86.20;;;;;;4753284;30;20102;-93
2022/08/14 13:56:58;;;;;;;10.23;3.97;;;31.50;86.60;;;;;;4739230;30;20059;-94
2022/08/14 13:59:27;;;;;;;7.45;4.25;;;31.50;86.60;;;;;;4739167;30;20174;-94
2022/08/14 14:01:56;;;;;;;6.00;3.58;;;31.60;87.20;;;;;;4739173;30;20094;-93
2022/08/14 14:04:24;;;;;;;4.88;3.40;;;31.60;86.90;;;;;;4739099;30;20047;-93
2022/08/14 14:06:50;;;;;;;12.00;4.07;;;31.60;87.00;;;;;;4739101;30;20051;-93
2022/08/14 14:09:28;;;;;;;7.75;3.88;;;31.50;85.10;;;;;;4739576;30;20056;-93
2022/08/14 14:11:55;;;;;;;8.52;3.72;;;31.50;84.80;;;;;;4739516;30;20052;-94
2022/08/14 14:14:23;;;;;;;15.55;4.18;;;31.50;84.40;;;;;;4738703;30;20047;-93
2022/08/14 14:16:50;;;;;;;6.88;3.58;;;31.50;84.20;;;;;;4739110;30;20109;-95
2022/08/14 14:19:19;;;;;;;5.70;3.40;;;31.50;83.60;;;;;;4738899;30;20048;-94
2022/08/14 14:21:49;;;;;;;6.55;3.60;;;31.50;84.60;;;;;;4736507;30;20055;-96
2022/08/14 14:24:17;;;;;;;6.35;3.67;;;31.50;83.70;;;;;;4736936;30;20048;-95
2022/08/14 14:26:58;;;;;;;7.95;3.67;;;31.60;83.70;;;;;;4738834;30;20044;-92
2022/08/14 14:29:25;;;;;;;8.88;3.60;;;31.60;84.30;;;;;;4725982;30;20933;-94
2022/08/14 14:31:51;;;;;;;9.82;3.75;;;31.70;84.40;;;;;;4721026;30;20169;-93
2022/08/14 14:34:32;;;;;;;7.57;3.25;;;31.70;84.00;;;;;;4721104;30;20485;-94
2022/08/14 14:37:02;;;;;;;6.45;3.40;;;31.90;83.60;;;;;;4720685;30;20413;-91
2022/08/14 14:39:28;;;;;;;9.52;3.90;;;31.80;83.40;;;;;;4719322;30;20052;-95
2022/08/14 14:41:58;;;;;;;7.20;3.90;;;31.80;83.70;;;;;;4720914;30;20147;-94
2022/08/14 14:44:34;;;;;;;9.00;3.85;;;31.80;83.60;;;;;;4720524;30;20071;-93
2022/08/14 14:47:00;;;;;;;7.70;3.35;;;31.80;83.40;;;;;;4735425;30;20044;-95
2022/08/14 14:49:28;;;;;;;8.07;3.33;;;31.80;83.10;;;;;;4720254;30;20063;-94
2022/08/14 14:51:55;;;;;;;7.30;3.72;;;31.80;83.00;;;;;;4720134;30;20040;-94
2022/08/14 14:54:22;;;;;;;10.10;3.78;;;31.80;81.30;;;;;;4720115;30;20144;-94
2022/08/14 14:56:49;;;;;;;6.40;3.25;;;31.90;82.30;;;;;;4735708;30;20055;-94
2022/08/14 14:59:15;;;;;;;7.05;4.03;;;31.80;82.30;;;;;;4713021;30;20056;-91
2022/08/14 15:01:46;;;;;;;6.90;3.60;;;31.70;81.60;;;;;;4724768;30;20052;-93
2022/08/14 15:04:14;;;;;;;5.72;3.80;;;31.60;81.40;;;;;;4717796;30;20049;-92
2022/08/14 15:06:41;;;;;;;5.78;3.92;;;31.50;81.20;;;;;;4721673;30;20048;-91
2022/08/14 15:09:07;;;;;;;6.05;3.55;;;31.50;81.80;;;;;;4717627;30;20114;-95
2022/08/14 15:11:33;;;;;;;6.82;3.85;;;31.40;81.70;;;;;;4725978;30;20114;-93
2022/08/14 15:14:00;;;;;;;7.85;3.83;;;31.40;82.10;;;;;;4711028;30;20481;-93
2022/08/14 15:16:26;;;;;;;6.70;3.83;;;31.40;81.30;;;;;;4724372;30;20115;-93
2022/08/14 15:18:52;;;;;;;7.22;3.45;;;31.40;81.60;;;;;;4717481;30;20122;-92
2022/08/14 15:21:17;;;;;;;6.10;3.55;;;31.40;82.00;;;;;;4725391;30;20437;-93
2022/08/14 15:23:45;;;;;;;8.73;3.72;;;31.40;80.60;;;;;;4723318;30;20048;-94
2022/08/14 15:26:14;;;;;;;6.28;3.88;;;31.40;79.70;;;;;;4725361;30;20292;-95
2022/08/14 15:28:43;;;;;;;8.75;3.33;;;31.40;79.50;;;;;;4725214;29;20497;-94
2022/08/14 15:31:08;;;;;;;8.25;3.30;;;31.50;79.00;;;;;;4743649;30;20056;-94
2022/08/14 15:36:19;;;;;;;9.15;3.22;;;31.50;80.30;;;;;;4733639;30;20067;-93